sensor_id;sensor_type;location;lat;lon;timestamp;temperature;humidity
43647;DHT22;56152;49.996;18.980;2022-10-16T00:02:16;12.20;90.60
43647;DHT22;56152;49.996;18.980;2022-10-16T00:07:22;12.20;90.50
43647;DHT22;56152;49.996;18.980;2022-10-16T00:12:24;12.10;90.70
43647;DHT22;56152;49.996;18.980;2022-10-16T00:17:26;12.10;90.80
43647;DHT22;56152;49.996;18.980;2022-10-16T00:22:33;12.00;90.80
43647;DHT22;56152;49.996;18.980;2022-10-16T00:27:35;12.00;90.90
43647;DHT22;56152;49.996;18.980;2022-10-16T00:32:39;11.90;90.90
43647;DHT22;56152;49.996;18.980;2022-10-16T00:37:44;11.90;91.00
43647;DHT22;56152;49.996;18.980;2022-10-16T00:42:47;11.80;91.10
43647;DHT22;56152;49.996;18.980;2022-10-16T00:47:51;11.80;91.30
43647;DHT22;56152;49.996;18.980;2022-10-16T00:53:05;11.80;91.30
43647;DHT22;56152;49.996;18.980;2022-10-16T00:58:07;11.70;91.40
43647;DHT22;56152;49.996;18.980;2022-10-16T01:03:23;11.70;91.50
43647;DHT22;56152;49.996;18.980;2022-10-16T01:08:32;11.70;91.60
43647;DHT22;56152;49.996;18.980;2022-10-16T01:13:42;11.70;91.70
43647;DHT22;56152;49.996;18.980;2022-10-16T01:18:52;11.70;91.70
43647;DHT22;56152;49.996;18.980;2022-10-16T01:24:03;11.60;91.80
43647;DHT22;56152;49.996;18.980;2022-10-16T01:29:15;11.60;91.90
43647;DHT22;56152;49.996;18.980;2022-10-16T01:34:20;11.50;92.10
43647;DHT22;56152;49.996;18.980;2022-10-16T01:39:28;11.50;92.20
43647;DHT22;56152;49.996;18.980;2022-10-16T01:44:34;11.50;92.20
43647;DHT22;56152;49.996;18.980;2022-10-16T01:49:38;11.40;92.30
43647;DHT22;56152;49.996;18.980;2022-10-16T01:54:46;11.30;92.30
43647;DHT22;56152;49.996;18.980;2022-10-16T01:59:59;11.30;92.50
43647;DHT22;56152;49.996;18.980;2022-10-16T02:05:08;11.30;92.50
43647;DHT22;56152;49.996;18.980;2022-10-16T02:10:19;11.20;92.50
43647;DHT22;56152;49.996;18.980;2022-10-16T02:15:24;11.20;92.40
43647;DHT22;56152;49.996;18.980;2022-10-16T02:20:28;11.20;92.40
43647;DHT22;56152;49.996;18.980;2022-10-16T02:25:39;11.20;92.50
43647;DHT22;56152;49.996;18.980;2022-10-16T02:30:48;11.10;92.50
43647;DHT22;56152;49.996;18.980;2022-10-16T02:35:51;11.00;92.60
43647;DHT22;56152;49.996;18.980;2022-10-16T02:41:03;11.00;92.60
43647;DHT22;56152;49.996;18.980;2022-10-16T02:46:07;11.00;92.70
43647;DHT22;56152;49.996;18.980;2022-10-16T02:51:18;11.00;92.70
43647;DHT22;56152;49.996;18.980;2022-10-16T02:56:21;10.90;92.70
43647;DHT22;56152;49.996;18.980;2022-10-16T03:01:30;10.90;92.80
43647;DHT22;56152;49.996;18.980;2022-10-16T03:06:32;10.80;93.00
43647;DHT22;56152;49.996;18.980;2022-10-16T03:11:47;10.80;93.00
43647;DHT22;56152;49.996;18.980;2022-10-16T03:16:58;10.70;93.00
43647;DHT22;56152;49.996;18.980;2022-10-16T03:22:00;10.70;93.10
43647;DHT22;56152;49.996;18.980;2022-10-16T03:27:08;10.60;93.00
43647;DHT22;56152;49.996;18.980;2022-10-16T03:32:12;10.60;93.10
43647;DHT22;56152;49.996;18.980;2022-10-16T03:37:22;10.50;93.20
43647;DHT22;56152;49.996;18.980;2022-10-16T03:42:26;10.50;93.20
43647;DHT22;56152;49.996;18.980;2022-10-16T03:47:32;10.40;93.20
43647;DHT22;56152;49.996;18.980;2022-10-16T03:52:33;10.20;93.40
43647;DHT22;56152;49.996;18.980;2022-10-16T03:57:36;10.10;93.50
43647;DHT22;56152;49.996;18.980;2022-10-16T04:02:43;9.90;93.50
43647;DHT22;56152;49.996;18.980;2022-10-16T04:07:45;9.80;93.60
43647;DHT22;56152;49.996;18.980;2022-10-16T04:13:03;9.80;93.60
43647;DHT22;56152;49.996;18.980;2022-10-16T04:18:11;9.80;93.60
43647;DHT22;56152;49.996;18.980;2022-10-16T04:23:14;9.70;93.70
43647;DHT22;56152;49.996;18.980;2022-10-16T04:28:16;9.60;93.70
43647;DHT22;56152;49.996;18.980;2022-10-16T04:33:19;9.50;93.70
43647;DHT22;56152;49.996;18.980;2022-10-16T04:38:39;9.50;93.80
43647;DHT22;56152;49.996;18.980;2022-10-16T04:43:41;9.50;93.90
43647;DHT22;56152;49.996;18.980;2022-10-16T04:48:45;9.50;93.80
43647;DHT22;56152;49.996;18.980;2022-10-16T04:53:50;9.50;93.90
43647;DHT22;56152;49.996;18.980;2022-10-16T04:58:52;9.50;93.90
43647;DHT22;56152;49.996;18.980;2022-10-16T05:04:19;9.40;93.80
43647;DHT22;56152;49.996;18.980;2022-10-16T05:09:21;9.40;93.80
43647;DHT22;56152;49.996;18.980;2022-10-16T05:14:23;9.50;93.90
43647;DHT22;56152;49.996;18.980;2022-10-16T05:19:44;9.40;93.80
43647;DHT22;56152;49.996;18.980;2022-10-16T05:24:46;9.40;93.90
43647;DHT22;56152;49.996;18.980;2022-10-16T05:29:50;9.80;93.90
43647;DHT22;56152;49.996;18.980;2022-10-16T05:34:55;9.80;93.60
43647;DHT22;56152;49.996;18.980;2022-10-16T05:40:02;9.80;93.80
43647;DHT22;56152;49.996;18.980;2022-10-16T05:45:06;9.70;93.80
43647;DHT22;56152;49.996;18.980;2022-10-16T05:50:10;9.70;93.90
43647;DHT22;56152;49.996;18.980;2022-10-16T05:55:14;9.60;93.90
43647;DHT22;56152;49.996;18.980;2022-10-16T06:00:21;9.70;94.00
43647;DHT22;56152;49.996;18.980;2022-10-16T06:05:26;9.70;93.90
43647;DHT22;56152;49.996;18.980;2022-10-16T06:10:28;9.80;93.90
43647;DHT22;56152;49.996;18.980;2022-10-16T06:15:30;10.00;93.90
43647;DHT22;56152;49.996;18.980;2022-10-16T06:20:54;10.40;93.80
43647;DHT22;56152;49.996;18.980;2022-10-16T06:26:05;10.90;93.50
43647;DHT22;56152;49.996;18.980;2022-10-16T06:31:18;11.50;93.00
43647;DHT22;56152;49.996;18.980;2022-10-16T06:36:23;12.20;92.60
43647;DHT22;56152;49.996;18.980;2022-10-16T06:41:25;12.80;92.10
43647;DHT22;56152;49.996;18.980;2022-10-16T06:46:27;13.60;91.50
43647;DHT22;56152;49.996;18.980;2022-10-16T06:51:46;14.10;90.90
43647;DHT22;56152;49.996;18.980;2022-10-16T06:56:53;14.70;90.60
43647;DHT22;56152;49.996;18.980;2022-10-16T07:01:56;15.20;90.00
43647;DHT22;56152;49.996;18.980;2022-10-16T07:07:02;15.70;88.80
43647;DHT22;56152;49.996;18.980;2022-10-16T07:12:07;16.20;87.70
43647;DHT22;56152;49.996;18.980;2022-10-16T07:17:09;16.50;87.10
43647;DHT22;56152;49.996;18.980;2022-10-16T07:22:13;16.90;86.00
43647;DHT22;56152;49.996;18.980;2022-10-16T07:27:14;17.30;85.00
43647;DHT22;56152;49.996;18.980;2022-10-16T07:32:17;17.50;84.30
43647;DHT22;56152;49.996;18.980;2022-10-16T07:37:20;17.30;84.10
43647;DHT22;56152;49.996;18.980;2022-10-16T07:42:22;17.00;84.80
43647;DHT22;56152;49.996;18.980;2022-10-16T07:47:25;16.80;84.90
43647;DHT22;56152;49.996;18.980;2022-10-16T07:52:28;16.80;85.00
43647;DHT22;56152;49.996;18.980;2022-10-16T07:57:33;16.90;84.80
43647;DHT22;56152;49.996;18.980;2022-10-16T08:02:35;17.10;84.20
43647;DHT22;56152;49.996;18.980;2022-10-16T08:07:42;17.20;84.00
43647;DHT22;56152;49.996;18.980;2022-10-16T08:12:45;17.40;83.60
43647;DHT22;56152;49.996;18.980;2022-10-16T08:17:55;18.00;82.40
43647;DHT22;56152;49.996;18.980;2022-10-16T08:23:09;18.60;79.40
43647;DHT22;56152;49.996;18.980;2022-10-16T08:28:14;18.80;78.50
43647;DHT22;56152;49.996;18.980;2022-10-16T08:33:21;18.90;77.20
43647;DHT22;56152;49.996;18.980;2022-10-16T08:38:32;18.80;77.20
43647;DHT22;56152;49.996;18.980;2022-10-16T08:43:47;18.80;77.60
43647;DHT22;56152;49.996;18.980;2022-10-16T08:48:56;19.00;77.50
43647;DHT22;56152;49.996;18.980;2022-10-16T08:54:02;19.50;76.30
43647;DHT22;56152;49.996;18.980;2022-10-16T08:59:10;20.10;74.10
43647;DHT22;56152;49.996;18.980;2022-10-16T09:04:47;20.20;72.90
43647;DHT22;56152;49.996;18.980;2022-10-16T09:10:09;20.50;72.50
43647;DHT22;56152;49.996;18.980;2022-10-16T09:15:20;20.60;72.10
43647;DHT22;56152;49.996;18.980;2022-10-16T09:20:38;21.00;71.70
43647;DHT22;56152;49.996;18.980;2022-10-16T09:25:49;21.20;70.40
43647;DHT22;56152;49.996;18.980;2022-10-16T09:30:51;21.00;70.20
43647;DHT22;56152;49.996;18.980;2022-10-16T09:35:55;20.50;71.30
43647;DHT22;56152;49.996;18.980;2022-10-16T09:41:10;20.20;71.60
43647;DHT22;56152;49.996;18.980;2022-10-16T09:46:22;20.10;72.10
43647;DHT22;56152;49.996;18.980;2022-10-16T09:51:28;20.40;70.30
43647;DHT22;56152;49.996;18.980;2022-10-16T09:56:33;20.60;70.30
43647;DHT22;56152;49.996;18.980;2022-10-16T10:01:39;20.60;69.70
43647;DHT22;56152;49.996;18.980;2022-10-16T10:06:44;20.80;69.30
43647;DHT22;56152;49.996;18.980;2022-10-16T10:11:54;21.10;68.30
43647;DHT22;56152;49.996;18.980;2022-10-16T10:17:07;21.20;67.10
43647;DHT22;56152;49.996;18.980;2022-10-16T10:27:49;20.60;69.40
43647;DHT22;56152;49.996;18.980;2022-10-16T10:33:09;20.60;69.30
43647;DHT22;56152;49.996;18.980;2022-10-16T10:38:25;20.50;69.40
43647;DHT22;56152;49.996;18.980;2022-10-16T10:43:43;20.40;69.80
43647;DHT22;56152;49.996;18.980;2022-10-16T10:48:58;20.50;69.00
43647;DHT22;56152;49.996;18.980;2022-10-16T10:54:11;20.40;69.50
43647;DHT22;56152;49.996;18.980;2022-10-16T10:59:45;20.20;69.90
43647;DHT22;56152;49.996;18.980;2022-10-16T11:05:27;20.00;69.00
43647;DHT22;56152;49.996;18.980;2022-10-16T11:10:37;19.80;69.50
43647;DHT22;56152;49.996;18.980;2022-10-16T11:15:45;19.80;69.80
43647;DHT22;56152;49.996;18.980;2022-10-16T11:20:51;19.60;69.70
43647;DHT22;56152;49.996;18.980;2022-10-16T11:25:56;19.60;70.20
43647;DHT22;56152;49.996;18.980;2022-10-16T11:31:05;19.60;70.20
43647;DHT22;56152;49.996;18.980;2022-10-16T11:36:14;19.70;69.90
43647;DHT22;56152;49.996;18.980;2022-10-16T11:41:24;19.70;70.20
43647;DHT22;56152;49.996;18.980;2022-10-16T11:46:31;19.60;70.00
43647;DHT22;56152;49.996;18.980;2022-10-16T11:51:38;19.60;70.20
43647;DHT22;56152;49.996;18.980;2022-10-16T11:56:48;19.60;70.40
43647;DHT22;56152;49.996;18.980;2022-10-16T12:01:58;19.60;70.40
43647;DHT22;56152;49.996;18.980;2022-10-16T12:07:09;19.50;70.10
43647;DHT22;56152;49.996;18.980;2022-10-16T12:12:25;19.40;70.30
43647;DHT22;56152;49.996;18.980;2022-10-16T12:17:35;19.40;70.40
43647;DHT22;56152;49.996;18.980;2022-10-16T12:22:42;19.40;70.70
43647;DHT22;56152;49.996;18.980;2022-10-16T12:27:55;19.40;70.70
43647;DHT22;56152;49.996;18.980;2022-10-16T12:33:20;19.50;70.80
43647;DHT22;56152;49.996;18.980;2022-10-16T12:38:28;19.70;70.60
43647;DHT22;56152;49.996;18.980;2022-10-16T12:43:41;19.80;70.50
43647;DHT22;56152;49.996;18.980;2022-10-16T12:48:46;19.90;70.40
43647;DHT22;56152;49.996;18.980;2022-10-16T12:54:11;19.90;70.30
43647;DHT22;56152;49.996;18.980;2022-10-16T12:59:25;19.90;69.90
43647;DHT22;56152;49.996;18.980;2022-10-16T13:04:59;19.90;69.30
43647;DHT22;56152;49.996;18.980;2022-10-16T13:10:12;19.70;69.90
43647;DHT22;56152;49.996;18.980;2022-10-16T13:15:25;19.70;70.30
43647;DHT22;56152;49.996;18.980;2022-10-16T13:20:59;19.70;70.50
43647;DHT22;56152;49.996;18.980;2022-10-16T13:26:17;19.60;70.80
43647;DHT22;56152;49.996;18.980;2022-10-16T13:31:23;19.50;70.80
43647;DHT22;56152;49.996;18.980;2022-10-16T13:36:29;19.40;72.00
43647;DHT22;56152;49.996;18.980;2022-10-16T13:41:33;19.30;71.50
43647;DHT22;56152;49.996;18.980;2022-10-16T13:46:36;19.20;71.60
43647;DHT22;56152;49.996;18.980;2022-10-16T13:51:40;19.20;71.30
43647;DHT22;56152;49.996;18.980;2022-10-16T13:56:42;19.20;71.70
43647;DHT22;56152;49.996;18.980;2022-10-16T14:01:44;19.30;71.60
43647;DHT22;56152;49.996;18.980;2022-10-16T14:06:50;19.40;71.20
43647;DHT22;56152;49.996;18.980;2022-10-16T14:11:56;19.50;70.80
43647;DHT22;56152;49.996;18.980;2022-10-16T14:16:59;19.50;70.80
43647;DHT22;56152;49.996;18.980;2022-10-16T14:22:24;19.50;70.80
43647;DHT22;56152;49.996;18.980;2022-10-16T14:27:30;19.40;70.90
43647;DHT22;56152;49.996;18.980;2022-10-16T14:32:32;19.50;71.10
43647;DHT22;56152;49.996;18.980;2022-10-16T14:37:38;19.50;71.00
43647;DHT22;56152;49.996;18.980;2022-10-16T14:42:43;19.40;70.80
43647;DHT22;56152;49.996;18.980;2022-10-16T14:47:50;19.40;71.00
43647;DHT22;56152;49.996;18.980;2022-10-16T14:52:58;19.30;71.20
43647;DHT22;56152;49.996;18.980;2022-10-16T14:58:00;19.20;71.70
43647;DHT22;56152;49.996;18.980;2022-10-16T15:03:02;19.10;71.90
43647;DHT22;56152;49.996;18.980;2022-10-16T15:08:06;19.10;71.90
43647;DHT22;56152;49.996;18.980;2022-10-16T15:13:11;19.10;71.70
43647;DHT22;56152;49.996;18.980;2022-10-16T15:18:14;18.90;72.20
43647;DHT22;56152;49.996;18.980;2022-10-16T15:23:22;18.60;72.80
43647;DHT22;56152;49.996;18.980;2022-10-16T15:28:25;18.30;73.50
43647;DHT22;56152;49.996;18.980;2022-10-16T15:33:27;18.00;74.30
43647;DHT22;56152;49.996;18.980;2022-10-16T15:38:35;17.80;75.10
43647;DHT22;56152;49.996;18.980;2022-10-16T15:43:37;17.50;75.80
43647;DHT22;56152;49.996;18.980;2022-10-16T15:48:39;17.30;76.40
43647;DHT22;56152;49.996;18.980;2022-10-16T15:53:45;17.10;77.10
43647;DHT22;56152;49.996;18.980;2022-10-16T15:58:47;16.90;77.70
43647;DHT22;56152;49.996;18.980;2022-10-16T16:04:02;16.80;78.30
43647;DHT22;56152;49.996;18.980;2022-10-16T16:09:06;16.60;78.70
43647;DHT22;56152;49.996;18.980;2022-10-16T16:14:11;16.40;79.40
43647;DHT22;56152;49.996;18.980;2022-10-16T16:19:14;16.30;79.90
43647;DHT22;56152;49.996;18.980;2022-10-16T16:24:22;16.10;80.20
43647;DHT22;56152;49.996;18.980;2022-10-16T16:29:25;15.90;80.70
43647;DHT22;56152;49.996;18.980;2022-10-16T16:34:27;15.90;81.00
43647;DHT22;56152;49.996;18.980;2022-10-16T16:39:32;15.70;81.20
43647;DHT22;56152;49.996;18.980;2022-10-16T16:44:35;15.60;81.60
43647;DHT22;56152;49.996;18.980;2022-10-16T16:49:37;15.50;81.80
43647;DHT22;56152;49.996;18.980;2022-10-16T16:54:43;15.40;82.00
43647;DHT22;56152;49.996;18.980;2022-10-16T16:59:52;15.30;82.50
43647;DHT22;56152;49.996;18.980;2022-10-16T17:04:54;15.20;82.80
43647;DHT22;56152;49.996;18.980;2022-10-16T17:09:59;15.10;83.00
43647;DHT22;56152;49.996;18.980;2022-10-16T17:15:03;15.00;83.20
43647;DHT22;56152;49.996;18.980;2022-10-16T17:20:06;15.00;83.30
43647;DHT22;56152;49.996;18.980;2022-10-16T17:25:11;14.90;83.60
43647;DHT22;56152;49.996;18.980;2022-10-16T17:30:16;14.80;83.80
43647;DHT22;56152;49.996;18.980;2022-10-16T17:35:18;14.80;83.90
43647;DHT22;56152;49.996;18.980;2022-10-16T17:40:22;14.70;84.30
43647;DHT22;56152;49.996;18.980;2022-10-16T17:45:27;14.40;84.90
43647;DHT22;56152;49.996;18.980;2022-10-16T17:50:29;14.30;85.40
43647;DHT22;56152;49.996;18.980;2022-10-16T17:55:38;14.20;85.60
43647;DHT22;56152;49.996;18.980;2022-10-16T18:00:42;14.00;85.60
43647;DHT22;56152;49.996;18.980;2022-10-16T18:05:45;13.90;85.60
43647;DHT22;56152;49.996;18.980;2022-10-16T18:10:50;13.80;85.70
43647;DHT22;56152;49.996;18.980;2022-10-16T18:15:58;13.70;86.00
43647;DHT22;56152;49.996;18.980;2022-10-16T18:21:04;13.70;86.30
43647;DHT22;56152;49.996;18.980;2022-10-16T18:26:09;13.70;86.40
43647;DHT22;56152;49.996;18.980;2022-10-16T18:31:13;13.70;86.50
43647;DHT22;56152;49.996;18.980;2022-10-16T18:36:18;13.60;86.90
43647;DHT22;56152;49.996;18.980;2022-10-16T18:41:21;13.40;87.50
43647;DHT22;56152;49.996;18.980;2022-10-16T18:46:24;13.20;88.00
43647;DHT22;56152;49.996;18.980;2022-10-16T18:51:29;13.10;88.20
43647;DHT22;56152;49.996;18.980;2022-10-16T18:56:32;13.10;88.30
43647;DHT22;56152;49.996;18.980;2022-10-16T19:01:38;13.00;88.20
43647;DHT22;56152;49.996;18.980;2022-10-16T19:06:44;13.10;88.30
43647;DHT22;56152;49.996;18.980;2022-10-16T19:11:48;13.10;88.30
43647;DHT22;56152;49.996;18.980;2022-10-16T19:16:50;13.10;88.20
43647;DHT22;56152;49.996;18.980;2022-10-16T19:21:52;12.90;88.50
43647;DHT22;56152;49.996;18.980;2022-10-16T19:27:12;12.80;88.80
43647;DHT22;56152;49.996;18.980;2022-10-16T19:32:17;12.80;88.90
43647;DHT22;56152;49.996;18.980;2022-10-16T19:37:18;12.70;89.10
43647;DHT22;56152;49.996;18.980;2022-10-16T19:42:26;12.60;89.30
43647;DHT22;56152;49.996;18.980;2022-10-16T19:47:29;12.40;89.40
43647;DHT22;56152;49.996;18.980;2022-10-16T19:52:31;12.30;89.70
43647;DHT22;56152;49.996;18.980;2022-10-16T19:57:36;12.10;90.00
43647;DHT22;56152;49.996;18.980;2022-10-16T20:02:38;12.00;90.20
43647;DHT22;56152;49.996;18.980;2022-10-16T20:07:41;11.90;90.30
43647;DHT22;56152;49.996;18.980;2022-10-16T20:12:45;11.90;90.40
43647;DHT22;56152;49.996;18.980;2022-10-16T20:17:48;11.90;90.40
43647;DHT22;56152;49.996;18.980;2022-10-16T20:22:50;12.00;90.40
43647;DHT22;56152;49.996;18.980;2022-10-16T20:27:54;12.00;90.40
43647;DHT22;56152;49.996;18.980;2022-10-16T20:32:57;12.00;90.50
43647;DHT22;56152;49.996;18.980;2022-10-16T20:38:01;12.00;90.50
43647;DHT22;56152;49.996;18.980;2022-10-16T20:43:05;11.80;90.50
43647;DHT22;56152;49.996;18.980;2022-10-16T20:48:10;11.70;90.70
43647;DHT22;56152;49.996;18.980;2022-10-16T20:53:13;11.70;90.80
43647;DHT22;56152;49.996;18.980;2022-10-16T20:58:18;11.60;91.00
43647;DHT22;56152;49.996;18.980;2022-10-16T21:03:20;11.60;91.10
43647;DHT22;56152;49.996;18.980;2022-10-16T21:08:22;11.60;91.10
43647;DHT22;56152;49.996;18.980;2022-10-16T21:13:25;11.60;91.10
43647;DHT22;56152;49.996;18.980;2022-10-16T21:18:30;11.50;91.10
43647;DHT22;56152;49.996;18.980;2022-10-16T21:23:34;11.40;91.20
43647;DHT22;56152;49.996;18.980;2022-10-16T21:28:38;11.30;91.30
43647;DHT22;56152;49.996;18.980;2022-10-16T21:33:39;11.20;91.30
43647;DHT22;56152;49.996;18.980;2022-10-16T21:38:42;11.20;91.30
43647;DHT22;56152;49.996;18.980;2022-10-16T21:43:45;11.10;91.40
43647;DHT22;56152;49.996;18.980;2022-10-16T21:48:48;11.20;91.50
43647;DHT22;56152;49.996;18.980;2022-10-16T21:54:00;11.10;91.40
43647;DHT22;56152;49.996;18.980;2022-10-16T21:59:04;11.10;91.40
43647;DHT22;56152;49.996;18.980;2022-10-16T22:04:10;11.10;91.50
43647;DHT22;56152;49.996;18.980;2022-10-16T22:09:16;11.10;91.50
43647;DHT22;56152;49.996;18.980;2022-10-16T22:14:20;10.90;91.60
43647;DHT22;56152;49.996;18.980;2022-10-16T22:19:23;10.80;91.80
43647;DHT22;56152;49.996;18.980;2022-10-16T22:24:28;10.80;92.00
43647;DHT22;56152;49.996;18.980;2022-10-16T22:29:32;10.70;92.00
43647;DHT22;56152;49.996;18.980;2022-10-16T22:34:34;10.70;92.00
43647;DHT22;56152;49.996;18.980;2022-10-16T22:39:37;10.70;92.00
43647;DHT22;56152;49.996;18.980;2022-10-16T22:44:43;10.70;92.00
43647;DHT22;56152;49.996;18.980;2022-10-16T22:49:54;10.60;92.10
43647;DHT22;56152;49.996;18.980;2022-10-16T22:54:56;10.50;92.10
43647;DHT22;56152;49.996;18.980;2022-10-16T23:00:02;10.50;92.20
43647;DHT22;56152;49.996;18.980;2022-10-16T23:05:06;10.50;92.30
43647;DHT22;56152;49.996;18.980;2022-10-16T23:10:08;10.40;92.20
43647;DHT22;56152;49.996;18.980;2022-10-16T23:15:11;10.40;92.50
43647;DHT22;56152;49.996;18.980;2022-10-16T23:20:13;10.30;92.50
43647;DHT22;56152;49.996;18.980;2022-10-16T23:25:22;10.40;92.50
43647;DHT22;56152;49.996;18.980;2022-10-16T23:30:28;10.40;92.50
43647;DHT22;56152;49.996;18.980;2022-10-16T23:35:32;10.40;92.50
43647;DHT22;56152;49.996;18.980;2022-10-16T23:40:34;10.40;92.40
43647;DHT22;56152;49.996;18.980;2022-10-16T23:45:41;10.40;92.40
43647;DHT22;56152;49.996;18.980;2022-10-16T23:50:43;10.30;92.50
43647;DHT22;56152;49.996;18.980;2022-10-16T23:55:44;10.30;92.60
